Rockville, Nebraska
Current Conditions -  °F | °C
As of 1:35 PM on Friday 31 Oct 2014 (Local Time) from KEAR Reporting Station
Clear Clear  
Wind Chill: 34°   Ceiling: Unl
Heat Index: 37°   Visibility: 10mi
Dew Point: 16°   Wind: 5mph
Humidity: 41%   Direction: 360°N
Pressure: 30.52"   Gusts: NA
Location:  41.12°N, 98.83°W
Report Text: KEAR 311835Z 36004KT 10SM CLR 03/M09 A3052 RMK AO1
Loading
Personal Weather Stations






























Interactive Weather Map
Tropical Storm Tracking
New forecast layout! Learn more

10-Day Weather Forecast

Advertisements
Track Severe Weather on mobile